createdAt,value
2019-03-05T00:01:24.079Z,83.29
2019-03-05T00:06:18.716Z,82.79
2019-03-05T00:11:13.476Z,82.58
2019-03-05T00:16:08.257Z,82.21
2019-03-05T00:21:02.845Z,82.97
2019-03-05T00:25:57.426Z,84.65
2019-03-05T00:31:14.227Z,85.12
2019-03-05T00:36:19.490Z,85.92
2019-03-05T00:41:56.626Z,86.28
2019-03-05T00:47:10.572Z,86.55
2019-03-05T00:52:21.252Z,86.22
2019-03-05T00:57:53.551Z,86.03
2019-03-05T01:03:37.952Z,85.95
2019-03-05T01:08:33.968Z,85.43
2019-03-05T01:13:28.567Z,84.86
2019-03-05T01:18:23.151Z,84.26
2019-03-05T01:23:17.884Z,84.29
2019-03-05T01:28:12.520Z,84.42
2019-03-05T01:33:11.873Z,85.17
2019-03-05T01:38:06.443Z,83.05
2019-03-05T01:43:01.021Z,81.96
2019-03-05T01:47:55.592Z,80.10
2019-03-05T01:52:50.249Z,79.12
2019-03-05T01:57:44.819Z,77.73
2019-03-05T02:02:39.488Z,76.74
2019-03-05T02:07:34.181Z,77.04
2019-03-05T02:12:28.769Z,76.48
2019-03-05T02:17:23.344Z,76.29
2019-03-05T02:22:25.098Z,75.87
2019-03-05T02:27:46.809Z,76.39
2019-03-05T02:33:00.952Z,75.37
2019-03-05T02:38:31.387Z,74.83
2019-03-05T02:43:53.157Z,74.75
2019-03-05T02:49:13.169Z,75.33
2019-03-05T02:54:24.151Z,80.23
2019-03-05T02:59:17.028Z,78.79
2019-03-05T03:04:13.276Z,79.68
2019-03-05T03:09:33.227Z,82.24
2019-03-05T03:14:27.822Z,83.98
2019-03-05T03:19:22.495Z,84.96
2019-03-05T03:24:17.061Z,84.71
2019-03-05T03:29:11.706Z,85.54
2019-03-05T03:34:06.360Z,86.18
2019-03-05T03:39:00.980Z,86.17
2019-03-05T03:43:55.652Z,85.84
2019-03-05T03:48:50.221Z,85.89
2019-03-05T03:53:44.800Z,86.47
2019-03-05T03:58:39.521Z,87.05
2019-03-05T04:03:34.186Z,87.60
2019-03-05T04:08:28.900Z,88.05
2019-03-05T04:13:23.576Z,88.52
2019-03-05T04:18:18.160Z,87.39
2019-03-05T04:23:12.758Z,86.65
2019-03-05T04:28:07.332Z,85.45
2019-03-05T04:33:01.931Z,85.50
2019-03-05T04:37:56.508Z,85.05
2019-03-05T04:42:51.086Z,84.83
2019-03-05T04:47:45.662Z,85.06
2019-03-05T04:52:40.265Z,85.33
2019-03-05T04:57:34.838Z,85.36
2019-03-05T05:02:29.423Z,85.49
2019-03-05T05:07:24.029Z,85.61
2019-03-05T05:12:18.630Z,85.97
2019-03-05T05:17:13.209Z,86.15
2019-03-05T05:22:07.801Z,86.50
2019-03-05T05:27:02.390Z,86.62
2019-03-05T05:31:58.445Z,86.54
2019-03-05T05:36:53.152Z,86.74
2019-03-05T05:41:47.736Z,86.46
2019-03-05T05:46:42.318Z,85.90
2019-03-05T05:51:36.891Z,85.69
2019-03-05T05:56:31.493Z,85.65
2019-03-05T06:01:26.078Z,85.48
2019-03-05T06:06:20.671Z,84.71
2019-03-05T06:11:15.261Z,84.68
2019-03-05T06:16:09.905Z,84.46
2019-03-05T06:21:04.497Z,83.69
2019-03-05T06:25:59.074Z,82.67
2019-03-05T06:30:53.657Z,81.38
2019-03-05T06:35:48.248Z,81.00
2019-03-05T06:40:45.554Z,79.84
2019-03-05T06:45:40.108Z,78.47
2019-03-05T06:50:34.724Z,78.52
2019-03-05T06:55:29.352Z,78.72
2019-03-05T07:00:41.689Z,79.26
2019-03-05T07:06:30.769Z,78.78
2019-03-05T07:11:38.455Z,79.06
2019-03-05T07:16:40.480Z,78.42
2019-03-05T07:22:08.396Z,76.90
2019-03-05T07:27:02.962Z,74.87
2019-03-05T07:31:57.591Z,74.41
2019-03-05T07:36:52.451Z,72.32
2019-03-05T07:41:48.244Z,71.79
2019-03-05T07:46:43.283Z,71.75
2019-03-05T07:51:38.221Z,70.40
2019-03-05T07:56:33.675Z,69.28
2019-03-05T08:01:28.273Z,68.49
2019-03-05T08:06:23.815Z,67.47
2019-03-05T08:11:18.622Z,66.94
2019-03-05T08:16:18.125Z,66.79
2019-03-05T08:21:12.947Z,66.06
2019-03-05T08:26:07.785Z,65.34
2019-03-05T08:31:03.110Z,64.98
2019-03-05T08:35:57.692Z,62.93
2019-03-05T08:40:52.701Z,62.67
2019-03-05T08:45:47.403Z,62.32
2019-03-05T08:50:42.096Z,61.88
2019-03-05T08:55:37.246Z,61.29
2019-03-05T09:00:31.951Z,57.67
2019-03-05T09:05:27.403Z,57.19
2019-03-05T09:10:26.074Z,56.61
2019-03-05T09:15:21.250Z,56.33
2019-03-05T09:20:20.731Z,55.78
2019-03-05T09:25:19.301Z,54.41
2019-03-05T09:30:22.512Z,53.95
2019-03-05T09:35:18.303Z,52.87
2019-03-05T09:40:40.829Z,52.46
2019-03-05T09:45:35.439Z,51.57
2019-03-05T09:50:32.031Z,50.95
2019-03-05T09:55:27.181Z,51.46
2019-03-05T10:00:24.831Z,51.56
2019-03-05T10:05:22.588Z,49.14
2019-03-05T10:10:21.709Z,48.42
2019-03-05T10:15:22.885Z,49.59
2019-03-05T10:20:29.975Z,49.38
2019-03-05T10:25:26.787Z,47.86
2019-03-05T10:30:37.072Z,46.98
2019-03-05T10:35:31.984Z,45.94
2019-03-05T10:40:34.646Z,45.99
2019-03-05T10:45:29.366Z,45.45
2019-03-05T10:50:31.118Z,47.42
2019-03-05T10:55:26.641Z,48.01
2019-03-05T11:00:49.608Z,47.73
2019-03-05T11:05:44.599Z,47.48
2019-03-05T11:10:41.204Z,47.18
2019-03-05T11:15:37.560Z,47.92
2019-03-05T11:20:32.298Z,46.42
2019-03-05T11:25:27.048Z,46.83
2019-03-05T11:30:35.999Z,46.83
2019-03-05T11:35:33.619Z,46.88
2019-03-05T11:40:29.304Z,46.55
2019-03-05T11:45:30.381Z,46.94
2019-03-05T11:50:26.398Z,45.51
2019-03-05T11:55:24.560Z,45.90
2019-03-05T12:00:36.359Z,45.32
2019-03-05T12:05:30.922Z,44.45
2019-03-05T12:10:29.047Z,44.17
2019-03-05T12:15:33.031Z,44.28
2019-03-05T12:20:27.738Z,44.23
2019-03-05T12:25:27.029Z,43.94
2019-03-05T12:30:28.055Z,45.44
2019-03-05T12:35:22.756Z,45.05
2019-03-05T12:40:19.968Z,44.63
2019-03-05T12:45:18.951Z,45.38
2019-03-05T12:50:17.830Z,45.48
2019-03-05T12:55:15.444Z,44.58
2019-03-05T13:00:17.654Z,43.60
2019-03-05T13:05:17.765Z,42.52
2019-03-05T13:10:36.245Z,42.38
2019-03-05T13:15:34.393Z,41.53
2019-03-05T13:20:31.135Z,41.91
2019-03-05T13:25:28.767Z,40.75
2019-03-05T13:30:28.063Z,41.17
2019-03-05T13:35:25.535Z,41.21
2019-03-05T13:40:23.172Z,41.66
2019-03-05T13:45:18.246Z,41.74
2019-03-05T13:50:29.574Z,42.14
2019-03-05T13:55:34.319Z,42.44
2019-03-05T14:00:28.885Z,42.28
2019-03-05T14:05:37.946Z,42.67
2019-03-05T14:10:32.523Z,43.00
2019-03-05T14:15:27.641Z,42.80
2019-03-05T14:20:31.595Z,42.79
2019-03-05T14:25:19.033Z,41.50
2019-03-05T14:30:21.336Z,41.51
2019-03-05T14:35:18.062Z,41.27
2019-03-05T14:40:24.423Z,40.73
2019-03-05T14:45:26.120Z,41.40
2019-03-05T14:50:20.747Z,41.89
2019-03-05T14:55:15.766Z,41.47
2019-03-05T15:00:18.125Z,41.95
2019-03-05T15:05:12.946Z,42.43
2019-03-05T15:10:09.691Z,42.95
2019-03-05T15:15:06.113Z,42.42
2019-03-05T15:20:00.783Z,43.24
2019-03-05T15:24:55.425Z,43.24
2019-03-05T15:29:50.026Z,43.47
2019-03-05T15:34:47.558Z,43.17
2019-03-05T15:39:42.430Z,43.19
2019-03-05T15:44:37.182Z,43.45
2019-03-05T15:49:32.177Z,42.77
2019-03-05T15:54:26.769Z,41.21
2019-03-05T15:59:21.424Z,41.82
2019-03-05T16:04:16.064Z,42.27
2019-03-05T16:09:16.998Z,43.37
2019-03-05T16:14:11.609Z,42.74
2019-03-05T16:19:06.280Z,42.88
2019-03-05T16:24:02.705Z,43.51
2019-03-05T16:28:57.547Z,43.53
2019-03-05T16:34:04.645Z,43.95
2019-03-05T16:39:04.888Z,44.03
2019-03-05T16:44:02.288Z,44.53
2019-03-05T16:49:14.718Z,45.77
2019-03-05T16:54:13.701Z,47.35
2019-03-05T16:59:26.182Z,47.71
2019-03-05T17:04:22.405Z,48.49
2019-03-05T17:09:19.260Z,48.81
2019-03-05T17:14:13.857Z,49.55
2019-03-05T17:19:08.450Z,49.81
2019-03-05T17:24:03.021Z,50.38
2019-03-05T17:28:57.807Z,50.51
2019-03-05T17:33:52.394Z,51.01
2019-03-05T17:38:46.991Z,51.71
2019-03-05T17:43:41.558Z,51.70
2019-03-05T17:48:36.162Z,51.36
2019-03-05T17:53:30.749Z,50.67
2019-03-05T17:58:26.897Z,50.67
2019-03-05T18:03:21.620Z,50.71
2019-03-05T18:08:22.624Z,50.53
2019-03-05T18:13:17.598Z,49.56
2019-03-05T18:18:12.191Z,48.41
2019-03-05T18:23:06.924Z,47.83
2019-03-05T18:28:01.688Z,47.55
2019-03-05T18:32:56.458Z,47.51
2019-03-05T18:37:51.426Z,47.26
2019-03-05T18:42:46.224Z,47.14
2019-03-05T18:47:40.824Z,47.02
2019-03-05T18:52:35.409Z,47.10
2019-03-05T18:57:29.995Z,47.04
2019-03-05T19:02:24.828Z,47.55
2019-03-05T19:07:19.492Z,47.91
2019-03-05T19:12:14.100Z,48.74
2019-03-05T19:17:08.846Z,49.46
2019-03-05T19:22:03.421Z,50.08
2019-03-05T19:26:58.000Z,50.22
2019-03-05T19:31:52.716Z,50.51
2019-03-05T19:36:47.322Z,51.12
2019-03-05T19:41:41.965Z,51.82
2019-03-05T19:46:36.547Z,51.66
2019-03-05T19:51:31.141Z,50.69
2019-03-05T19:56:26.635Z,51.08
2019-03-05T20:01:22.867Z,50.38
2019-03-05T20:06:18.662Z,50.22
2019-03-05T20:11:13.308Z,49.66
2019-03-05T20:16:08.731Z,49.38
2019-03-05T20:21:03.385Z,49.36
2019-03-05T20:25:58.133Z,49.35
2019-03-05T20:30:52.704Z,49.11
2019-03-05T20:35:47.309Z,48.84
2019-03-05T20:40:41.958Z,49.17
2019-03-05T20:45:51.645Z,50.19
2019-03-05T20:50:46.221Z,51.36
2019-03-05T20:55:40.830Z,52.05
2019-03-05T21:00:40.108Z,53.01
2019-03-05T21:05:43.773Z,53.75
2019-03-05T21:10:38.563Z,53.64
2019-03-05T21:15:35.834Z,53.40
2019-03-05T21:20:30.410Z,53.75
2019-03-05T21:25:25.140Z,54.26
2019-03-05T21:30:28.193Z,54.34
2019-03-05T21:35:22.904Z,54.78
2019-03-05T21:40:33.031Z,54.64
2019-03-05T21:45:32.005Z,54.90
2019-03-05T21:50:26.870Z,54.72
2019-03-05T21:55:21.578Z,55.11
2019-03-05T22:00:29.443Z,55.36
2019-03-05T22:05:24.091Z,55.23
2019-03-05T22:10:23.571Z,55.49
2019-03-05T22:15:23.609Z,55.00
2019-03-05T22:20:20.476Z,56.42
2019-03-05T22:25:21.867Z,56.82
2019-03-05T22:30:26.598Z,57.29
2019-03-05T22:35:21.384Z,58.36
2019-03-05T22:40:18.874Z,59.42
2019-03-05T22:45:20.983Z,59.79
2019-03-05T22:50:17.364Z,59.81
2019-03-05T22:55:17.380Z,60.41
2019-03-05T23:00:41.715Z,60.71
2019-03-05T23:05:36.448Z,60.68
2019-03-05T23:10:31.496Z,60.80
2019-03-05T23:15:26.401Z,60.59
2019-03-05T23:20:21.410Z,60.43
2019-03-05T23:25:20.743Z,60.84
2019-03-05T23:30:21.922Z,61.69
2019-03-05T23:35:16.550Z,61.55
2019-03-05T23:40:14.154Z,62.42
2019-03-05T23:45:20.094Z,62.58
2019-03-05T23:50:17.240Z,63.89
2019-03-05T23:55:13.236Z,64.86
